Details From YBCS - Cairns
To YBTL - Townsville Intl
Flight Number -
Tags decoded
Created
Modified
Stats Distance 154 nm / 285 km
Max Altitude 0 ft / 0 m
Waypoints 2
Social Downloads 0
Likes 0
Share VATSIM

Download

Looking for another format? Having issues loading an existing format? Contact us
Advertisement - Login to hide

Notes

Requested: YBCS N/A YBTL Unmatched points: N/A

Route

YBCS YBTL

ID Type Via Altitude (ft/m) Position (lat/lon) Dist (leg/tot) Name
O YBCS APT - 0 / 0 -16.87890 / 145.74900 - / 0 nm Cairns
O YBTL APT - 0 / 0 -19.25130 / 146.76500 153 / 153 nm Townsville Intl

Altitude Profile

Advertisement - Login to hide

YBCS

Details ICAO YBCS (CNS)
Name Cairns
Region Australia
Timezone Australia/Brisbane (UTC+10.0)
Stats Elevation 9 ft / 3 m (AMSL)
Location -16.878900° 145.749000°
Runways 1
Magnetic Variation 6.641° E

METAR

YBCS 260900Z AUTO 31003KT 9999 // SCT020 29/25 Q1007 NOSIG

Decode

TAF

TAF AMD TAF AMD YBCS 260606Z 2606/2706 02010KT 9999 -SHRA SCT025 FM260900 VRB03KT 9999 NSW FEW010 SCT020 FM270100 02012KT 9999 -SHRA SCT025 INTER 2704/2706 2000 SHRA BKN010

Decode

Departure Runways

ID Width Length Bearing (true/mag) Surface Threshold Overrun Markings Lighting
15 148 ft / 45 m 10,395 ft / 3,168 m 156.62° / 149.97° ASPHALT 0 ft / 0 m 328 ft / 100 m PREC-APP CENTERLINE EDGE THRESHOLD CALVERT TDZ
33 148 ft / 45 m 10,395 ft / 3,168 m 336.61° / 329.97° ASPHALT 0 ft / 0 m 0 ft / 0 m UK-APP CENTERLINE EDGE THRESHOLD

YBTL

Details ICAO YBTL (TSV)
Name Townsville Intl
Region Australia
Timezone Australia/Brisbane (UTC+10.0)
Stats Elevation 18 ft / 5 m (AMSL)
Location -19.251300° 146.765000°
Runways 2
Magnetic Variation 7.327° E

METAR

YBTL 260900Z 36005KT 9999 FEW015 SCT019 29/27 Q1007 NOSIG

Decode

TAF

TAF AMD TAF AMD YBTL 260624Z 2606/2706 36012KT 9999 -SHRA SCT022 FM261000 32007KT 9999 -SHRA FEW014 SCT020 SCT030 FM270000 36012KT 9999 -SHRA SCT025 INTER 2612/2700 3000 SHRA BKN012 PROB30 TEMPO 2612/2618 VRB15G25KT 1000 TSRA BKN005 SCT020CB

Decode

Destination Runways

ID Width Length Bearing (true/mag) Surface Threshold Overrun Markings Lighting
01 148 ft / 45 m 8,022 ft / 2,445 m 23.99° / 16.67° ASPHALT 0 ft / 0 m 0 ft / 0 m PREC-APP CENTERLINE EDGE THRESHOLD SALS TDZ
07 98 ft / 30 m 3,607 ft / 1,099 m 73.73° / 66.40° ASPHALT 0 ft / 0 m 0 ft / 0 m PREC-APP EDGE THRESHOLD
19 148 ft / 45 m 8,022 ft / 2,445 m 203.99° / 196.67° ASPHALT 0 ft / 0 m 0 ft / 0 m PREC-APP CENTERLINE EDGE THRESHOLD
25 98 ft / 30 m 3,607 ft / 1,099 m 253.73° / 246.40° ASPHALT 0 ft / 0 m 0 ft / 0 m PREC-APP EDGE THRESHOLD

Approach Navaids

Runway Type Ident Frequency Range Bearing (true/mag) Slope Elevation
01 DME ITL 109.30 MHz 18 nm / 33 km - - 18 ft / 5 m (AMSL)
01 MM MM - - 24.02° / 16.70 ° - 18 ft / 5 m (AMSL)
01 LOC-ILS ITL 109.30 MHz 18 nm / 33 km 23.99° / 16.66 ° - 18 ft / 5 m (AMSL)
01 GS ITL 109.30 MHz 10 nm / 19 km 23.99° / 16.66 ° 3.00° 18 ft / 5 m (AMSL)
01 OM OM - - 24.02° / 16.70 ° - 18 ft / 5 m (AMSL)

Popular Alternatives